Time;durP1;ratioP1;P1;durP2;ratioP2;P2;SDS_P1;SDS_P2;PMS_P1;PMS_P2;Temp;Humidity;BMP_temperature;BMP_pressure;BME280_temperature;BME280_humidity;BME280_pressure;Samples;Min_cycle;Max_cycle;Signal;HPM_P1;HPM_P2
2023/12/23 00:01:31;;;;;;;1.70;1.60;;;;;;;;;;6067888;29;20323;-68
2023/12/23 00:04:35;;;;;;;1.37;1.37;;;;;;;;;;6067833;29;20292;-69
2023/12/23 00:07:39;;;;;;;1.37;1.30;;;;;;;;;;6072007;29;20298;-69
2023/12/23 00:10:43;;;;;;;1.30;1.30;;;;;;;;;;6061772;29;20320;-68
2023/12/23 00:13:47;;;;;;;1.60;1.50;;;;;;;;;;6048762;29;20300;-69
2023/12/23 00:16:52;;;;;;;1.30;1.30;;;;;;;;;;6048697;29;20312;-68
2023/12/23 00:19:57;;;;;;;1.40;1.40;;;;;;;;;;6048747;29;20324;-68
2023/12/23 00:23:02;;;;;;;1.37;1.37;;;;;;;;;;6047777;29;20320;-69
2023/12/23 00:26:06;;;;;;;1.60;1.60;;;;;;;;;;6047716;29;20276;-69
2023/12/23 00:29:10;;;;;;;1.30;1.30;;;;;;;;;;6048359;29;20330;-68
2023/12/23 00:32:15;;;;;;;1.30;1.30;;;;;;;;;;6048452;29;20272;-69
2023/12/23 00:35:20;;;;;;;1.57;1.50;;;;;;;;;;6048417;29;20292;-68
2023/12/23 00:38:24;;;;;;;1.50;1.50;;;;;;;;;;6048107;29;20313;-68
2023/12/23 00:41:28;;;;;;;1.30;1.30;;;;;;;;;;6048500;29;20328;-68
2023/12/23 00:44:32;;;;;;;1.63;1.63;;;;;;;;;;6046977;29;20307;-68
2023/12/23 00:47:37;;;;;;;1.50;1.50;;;;;;;;;;6046756;29;20329;-68
2023/12/23 00:50:41;;;;;;;1.40;1.40;;;;;;;;;;6047473;29;20304;-68
2023/12/23 00:53:45;;;;;;;1.40;1.40;;;;;;;;;;6046924;29;20294;-69
2023/12/23 00:56:51;;;;;;;1.40;1.40;;;;;;;;;;6065026;29;20385;-69
2023/12/23 00:59:56;;;;;;;1.43;1.43;;;;;;;;;;6069444;29;20311;-69
2023/12/23 01:03:02;;;;;;;1.40;1.40;;;;;;;;;;6070830;29;20310;-69
2023/12/23 01:06:08;;;;;;;1.40;1.40;;;;;;;;;;6062556;29;20307;-69
2023/12/23 01:09:12;;;;;;;1.53;1.53;;;;;;;;;;6046455;29;20321;-69
2023/12/23 01:12:16;;;;;;;1.40;1.40;;;;;;;;;;6047633;29;20299;-69
2023/12/23 01:15:21;;;;;;;1.40;1.40;;;;;;;;;;6047398;29;20327;-69
2023/12/23 01:18:26;;;;;;;1.20;1.20;;;;;;;;;;6046333;29;20303;-69
2023/12/23 01:21:31;;;;;;;1.50;1.40;;;;;;;;;;6046549;29;20296;-69
2023/12/23 01:24:35;;;;;;;1.40;1.40;;;;;;;;;;6046234;29;20334;-69
2023/12/23 01:27:39;;;;;;;1.53;1.53;;;;;;;;;;6047117;29;20308;-69
2023/12/23 01:30:43;;;;;;;1.50;1.50;;;;;;;;;;6046886;29;20305;-69
2023/12/23 01:33:49;;;;;;;1.50;1.50;;;;;;;;;;6047077;29;20297;-69
2023/12/23 01:36:53;;;;;;;1.50;1.50;;;;;;;;;;6047024;29;20307;-69
2023/12/23 01:39:57;;;;;;;1.50;1.50;;;;;;;;;;6046830;29;20312;-69
2023/12/23 01:43:01;;;;;;;1.30;1.30;;;;;;;;;;6046586;29;20623;-69
2023/12/23 01:46:05;;;;;;;1.67;1.60;;;;;;;;;;6046919;29;20374;-69
2023/12/23 01:49:10;;;;;;;1.87;1.37;;;;;;;;;;6045245;29;20303;-70
2023/12/23 01:52:14;;;;;;;1.87;1.83;;;;;;;;;;6046645;29;20310;-70
2023/12/23 01:55:19;;;;;;;1.63;1.63;;;;;;;;;;6049910;29;20303;-69
2023/12/23 01:58:24;;;;;;;1.40;1.40;;;;;;;;;;6069354;29;20363;-69
2023/12/23 02:01:28;;;;;;;2.00;1.90;;;;;;;;;;6069803;29;20303;-69
2023/12/23 02:04:33;;;;;;;1.57;1.57;;;;;;;;;;6069066;29;20318;-68
2023/12/23 02:07:38;;;;;;;1.67;1.67;;;;;;;;;;6069466;29;20299;-69
2023/12/23 02:10:42;;;;;;;1.70;1.70;;;;;;;;;;6058628;29;20308;-69
2023/12/23 02:13:54;;;;;;;1.80;1.80;;;;;;;;;;6046122;29;20445;-69
2023/12/23 02:16:58;;;;;;;1.40;1.40;;;;;;;;;;6045917;29;20307;-70
2023/12/23 02:20:04;;;;;;;1.57;1.57;;;;;;;;;;6046025;29;20625;-69
2023/12/23 02:23:10;;;;;;;1.40;1.40;;;;;;;;;;6045998;29;20396;-69
2023/12/23 02:26:16;;;;;;;1.37;1.37;;;;;;;;;;6046164;29;20306;-69
2023/12/23 02:29:21;;;;;;;1.53;1.53;;;;;;;;;;6045907;29;20295;-69
2023/12/23 02:32:27;;;;;;;1.60;1.50;;;;;;;;;;6045015;29;20306;-69
2023/12/23 02:35:31;;;;;;;1.80;1.70;;;;;;;;;;6045360;29;20466;-69
2023/12/23 02:38:36;;;;;;;1.40;1.40;;;;;;;;;;6044254;29;20303;-69
2023/12/23 02:41:40;;;;;;;1.33;1.33;;;;;;;;;;6045932;29;20583;-69
2023/12/23 02:44:45;;;;;;;1.50;1.50;;;;;;;;;;6043872;29;20390;-69
2023/12/23 02:47:50;;;;;;;1.30;1.30;;;;;;;;;;6044714;29;20291;-69
2023/12/23 02:50:54;;;;;;;1.43;1.43;;;;;;;;;;6045936;29;20313;-69
2023/12/23 02:53:59;;;;;;;1.50;1.40;;;;;;;;;;6043663;29;20612;-69
2023/12/23 02:57:03;;;;;;;1.40;1.40;;;;;;;;;;6062702;29;20619;-69
2023/12/23 03:00:08;;;;;;;1.30;1.30;;;;;;;;;;6068104;29;20309;-69
2023/12/23 03:03:15;;;;;;;1.30;1.30;;;;;;;;;;6067286;29;20291;-69
2023/12/23 03:06:19;;;;;;;1.30;1.30;;;;;;;;;;6068291;29;20306;-69
2023/12/23 03:09:25;;;;;;;1.43;1.43;;;;;;;;;;6068062;29;20307;-71
2023/12/23 03:12:30;;;;;;;1.40;1.40;;;;;;;;;;6045521;29;20302;-69
2023/12/23 03:15:34;;;;;;;1.40;1.30;;;;;;;;;;6044135;29;20317;-69
2023/12/23 03:18:37;;;;;;;1.47;1.47;;;;;;;;;;6044903;29;20466;-69
2023/12/23 03:21:44;;;;;;;1.30;1.30;;;;;;;;;;6045562;29;20303;-70
2023/12/23 03:24:50;;;;;;;1.30;1.30;;;;;;;;;;6044743;29;20307;-69
2023/12/23 03:27:54;;;;;;;1.37;1.27;;;;;;;;;;6045076;29;20303;-69
2023/12/23 03:30:58;;;;;;;1.20;1.20;;;;;;;;;;6045413;29;20323;-69
2023/12/23 03:34:02;;;;;;;1.20;1.20;;;;;;;;;;6044979;29;20311;-69
2023/12/23 03:37:06;;;;;;;1.10;1.10;;;;;;;;;;6044042;29;20312;-69
2023/12/23 03:40:12;;;;;;;1.10;1.10;;;;;;;;;;6045716;29;20316;-69
2023/12/23 03:43:16;;;;;;;1.30;1.20;;;;;;;;;;6047697;29;20378;-69
2023/12/23 03:46:22;;;;;;;0.90;0.90;;;;;;;;;;6049691;29;20301;-68
2023/12/23 03:49:26;;;;;;;1.07;1.07;;;;;;;;;;6049334;29;20296;-69
2023/12/23 03:52:30;;;;;;;1.10;1.10;;;;;;;;;;6048555;29;20305;-69
2023/12/23 03:55:35;;;;;;;1.10;1.10;;;;;;;;;;6055866;29;20292;-69
2023/12/23 03:58:39;;;;;;;1.20;1.20;;;;;;;;;;6070704;29;20302;-69
2023/12/23 04:01:45;;;;;;;1.20;1.20;;;;;;;;;;6059884;29;20306;-69
2023/12/23 04:04:49;;;;;;;1.00;1.00;;;;;;;;;;6057465;29;20298;-69
2023/12/23 04:07:53;;;;;;;1.10;1.10;;;;;;;;;;6058525;29;20314;-69
2023/12/23 04:10:59;;;;;;;1.30;1.30;;;;;;;;;;6052025;29;20459;-69
2023/12/23 04:14:03;;;;;;;1.37;1.37;;;;;;;;;;6069841;29;20305;-69
2023/12/23 04:17:08;;;;;;;1.30;1.30;;;;;;;;;;6070373;29;20481;-69
2023/12/23 04:20:12;;;;;;;1.27;1.27;;;;;;;;;;6062889;29;20681;-69
2023/12/23 04:23:16;;;;;;;1.47;1.47;;;;;;;;;;6047735;29;20456;-70
2023/12/23 04:26:21;;;;;;;1.53;1.50;;;;;;;;;;6047149;29;20301;-69
2023/12/23 04:29:26;;;;;;;1.50;1.50;;;;;;;;;;6047003;29;20373;-69
2023/12/23 04:32:30;;;;;;;1.30;1.30;;;;;;;;;;6048360;29;20297;-69
2023/12/23 04:35:34;;;;;;;1.27;1.17;;;;;;;;;;6047723;29;20300;-69
2023/12/23 04:38:38;;;;;;;1.23;1.23;;;;;;;;;;6059106;29;20293;-68
2023/12/23 04:41:48;;;;;;;1.40;1.30;;;;;;;;;;6047345;29;20302;-70
2023/12/23 04:44:54;;;;;;;1.37;1.37;;;;;;;;;;6061835;29;20293;-69
2023/12/23 04:47:58;;;;;;;1.70;1.70;;;;;;;;;;6048106;29;20305;-68
2023/12/23 04:51:02;;;;;;;1.10;1.10;;;;;;;;;;6047031;29;20301;-68
2023/12/23 04:54:06;;;;;;;1.37;1.37;;;;;;;;;;6046831;29;20309;-69
2023/12/23 04:57:12;;;;;;;1.30;1.30;;;;;;;;;;6047935;29;20317;-68
2023/12/23 05:00:17;;;;;;;1.57;1.57;;;;;;;;;;6046572;29;20306;-69
2023/12/23 05:03:21;;;;;;;1.37;1.37;;;;;;;;;;6047408;29;20551;-69
2023/12/23 05:06:26;;;;;;;1.30;1.30;;;;;;;;;;6055322;29;20300;-68
2023/12/23 05:09:30;;;;;;;1.20;1.20;;;;;;;;;;6045691;29;20300;-68
2023/12/23 05:12:36;;;;;;;1.37;1.37;;;;;;;;;;6057193;29;20325;-67
2023/12/23 05:15:40;;;;;;;1.60;1.60;;;;;;;;;;6045494;29;20301;-68
2023/12/23 05:18:44;;;;;;;1.30;1.30;;;;;;;;;;6046534;29;20301;-69
2023/12/23 05:21:48;;;;;;;1.50;1.50;;;;;;;;;;6047532;29;20308;-68
2023/12/23 05:24:52;;;;;;;1.53;1.43;;;;;;;;;;6046893;29;20315;-69
2023/12/23 05:27:57;;;;;;;1.50;1.50;;;;;;;;;;6046291;29;20292;-68
2023/12/23 05:31:02;;;;;;;1.70;1.60;;;;;;;;;;6045555;29;20302;-68
2023/12/23 05:34:06;;;;;;;1.30;1.30;;;;;;;;;;6046757;29;20304;-68
2023/12/23 05:37:10;;;;;;;2.63;1.50;;;;;;;;;;6047291;29;20538;-68
2023/12/23 05:40:14;;;;;;;1.30;1.30;;;;;;;;;;6046414;29;20297;-69
2023/12/23 05:43:19;;;;;;;1.60;1.50;;;;;;;;;;6046788;29;20321;-69
2023/12/23 05:46:23;;;;;;;1.50;1.50;;;;;;;;;;6046454;29;20304;-68
2023/12/23 05:49:26;;;;;;;1.53;1.53;;;;;;;;;;6045829;29;20301;-69
2023/12/23 05:52:30;;;;;;;1.47;1.47;;;;;;;;;;6046589;29;20306;-69
2023/12/23 05:55:34;;;;;;;1.50;1.50;;;;;;;;;;6046035;29;20395;-69
2023/12/23 05:58:39;;;;;;;1.77;1.77;;;;;;;;;;6046588;29;20307;-68
2023/12/23 06:01:44;;;;;;;1.93;1.93;;;;;;;;;;6045539;29;20300;-69
2023/12/23 06:04:47;;;;;;;1.53;1.53;;;;;;;;;;6050791;29;20516;-69
2023/12/23 06:07:51;;;;;;;1.87;1.87;;;;;;;;;;6069160;29;20490;-69
2023/12/23 06:10:56;;;;;;;1.90;1.80;;;;;;;;;;6063546;29;20301;-69
2023/12/23 06:14:03;;;;;;;2.37;2.27;;;;;;;;;;6043567;29;20494;-69
2023/12/23 06:17:08;;;;;;;2.07;2.07;;;;;;;;;;6045623;29;20296;-69
2023/12/23 06:20:12;;;;;;;1.70;1.70;;;;;;;;;;6045563;29;20316;-70
2023/12/23 06:23:16;;;;;;;1.80;1.80;;;;;;;;;;6046402;29;20242;-70
2023/12/23 06:26:20;;;;;;;1.90;1.90;;;;;;;;;;6046053;29;20298;-69
2023/12/23 06:29:26;;;;;;;1.60;1.60;;;;;;;;;;6044277;29;20470;-70
2023/12/23 06:32:29;;;;;;;1.47;1.47;;;;;;;;;;6045652;29;20289;-69
2023/12/23 06:35:33;;;;;;;1.90;1.80;;;;;;;;;;6045292;29;20574;-69
2023/12/23 06:38:37;;;;;;;1.70;1.70;;;;;;;;;;6046056;29;20308;-69
2023/12/23 06:41:41;;;;;;;1.70;1.70;;;;;;;;;;6045174;29;20296;-69
2023/12/23 06:44:51;;;;;;;1.90;1.80;;;;;;;;;;6045385;29;20597;-69
2023/12/23 06:47:55;;;;;;;1.70;1.70;;;;;;;;;;6045994;29;20569;-69
2023/12/23 06:51:00;;;;;;;1.73;1.73;;;;;;;;;;6045069;29;20330;-69
2023/12/23 06:54:04;;;;;;;1.80;1.80;;;;;;;;;;6044982;29;20305;-69
2023/12/23 06:57:08;;;;;;;2.00;1.90;;;;;;;;;;6064228;29;20303;-68
2023/12/23 07:00:15;;;;;;;1.73;1.73;;;;;;;;;;6067951;29;20317;-68
2023/12/23 07:03:19;;;;;;;1.60;1.60;;;;;;;;;;6068787;29;20297;-71
2023/12/23 07:06:22;;;;;;;1.70;1.70;;;;;;;;;;6067994;29;20589;-69
2023/12/23 07:09:26;;;;;;;1.80;1.80;;;;;;;;;;6057594;29;20293;-68
2023/12/23 07:12:30;;;;;;;1.70;1.70;;;;;;;;;;6045129;29;20309;-68
2023/12/23 07:15:36;;;;;;;1.73;1.73;;;;;;;;;;6046407;29;20305;-68
2023/12/23 07:18:40;;;;;;;5.40;2.00;;;;;;;;;;6049486;29;20309;-69
2023/12/23 07:21:45;;;;;;;1.60;1.60;;;;;;;;;;6048605;29;20484;-68
2023/12/23 07:24:48;;;;;;;1.90;1.60;;;;;;;;;;6049233;29;20301;-68
2023/12/23 07:27:52;;;;;;;1.50;1.50;;;;;;;;;;6050138;29;20299;-68
2023/12/23 07:30:57;;;;;;;1.70;1.60;;;;;;;;;;6049544;29;20301;-68
2023/12/23 07:34:02;;;;;;;1.40;1.40;;;;;;;;;;6049780;29;20588;-68
2023/12/23 07:37:06;;;;;;;1.43;1.43;;;;;;;;;;6049654;29;20335;-68
2023/12/23 07:40:11;;;;;;;1.60;1.60;;;;;;;;;;6049402;29;20310;-68
2023/12/23 07:43:15;;;;;;;1.60;1.60;;;;;;;;;;6050005;29;20301;-70
2023/12/23 07:46:21;;;;;;;1.70;1.70;;;;;;;;;;6049482;29;20437;-69
2023/12/23 07:49:25;;;;;;;1.83;1.83;;;;;;;;;;6049401;29;20293;-69
2023/12/23 07:52:29;;;;;;;1.60;1.60;;;;;;;;;;6049740;29;20297;-69
2023/12/23 07:55:34;;;;;;;1.63;1.63;;;;;;;;;;6055666;29;20390;-69
2023/12/23 07:58:38;;;;;;;1.60;1.60;;;;;;;;;;6072642;29;20296;-69
2023/12/23 08:01:47;;;;;;;2.03;2.03;;;;;;;;;;6071778;29;20449;-69
2023/12/23 08:04:51;;;;;;;1.77;1.77;;;;;;;;;;6071677;29;20306;-70
2023/12/23 08:07:55;;;;;;;1.87;1.87;;;;;;;;;;6072404;29;20306;-70
2023/12/23 08:10:59;;;;;;;1.70;1.70;;;;;;;;;;6065552;29;20438;-69
2023/12/23 08:14:03;;;;;;;1.73;1.70;;;;;;;;;;6048334;29;20314;-70
2023/12/23 08:17:09;;;;;;;1.40;1.40;;;;;;;;;;6048515;29;20305;-69
2023/12/23 08:20:12;;;;;;;1.60;1.60;;;;;;;;;;6048414;29;20298;-70
2023/12/23 08:23:16;;;;;;;1.60;1.60;;;;;;;;;;6048757;29;20243;-70
2023/12/23 08:26:20;;;;;;;1.60;1.60;;;;;;;;;;6048170;29;20297;-69
2023/12/23 08:29:25;;;;;;;1.50;1.50;;;;;;;;;;6048234;29;20297;-69
2023/12/23 08:32:30;;;;;;;1.60;1.60;;;;;;;;;;6048726;29;20301;-69
2023/12/23 08:35:34;;;;;;;1.70;1.70;;;;;;;;;;6047855;29;20312;-69
2023/12/23 08:38:46;;;;;;;1.60;1.60;;;;;;;;;;6048020;29;20292;-69
2023/12/23 08:41:50;;;;;;;1.50;1.50;;;;;;;;;;6048284;29;20295;-69
2023/12/23 08:44:54;;;;;;;1.80;1.80;;;;;;;;;;6047603;29;20293;-68
2023/12/23 08:48:00;;;;;;;1.60;1.60;;;;;;;;;;6048522;29;20297;-68
2023/12/23 08:51:04;;;;;;;1.50;1.50;;;;;;;;;;6047742;29;20299;-68
2023/12/23 08:54:08;;;;;;;1.60;1.60;;;;;;;;;;6047432;29;20300;-69
2023/12/23 08:57:12;;;;;;;1.87;1.87;;;;;;;;;;6065697;29;20300;-68
2023/12/23 09:00:16;;;;;;;1.50;1.50;;;;;;;;;;6070498;29;20308;-69
2023/12/23 09:03:21;;;;;;;1.67;1.67;;;;;;;;;;6071262;29;20297;-69
2023/12/23 09:06:25;;;;;;;1.27;1.27;;;;;;;;;;6070516;29;20297;-69
2023/12/23 09:09:29;;;;;;;1.60;1.60;;;;;;;;;;6070422;29;20304;-69
2023/12/23 09:12:35;;;;;;;1.90;1.87;;;;;;;;;;6052839;29;20363;-70
2023/12/23 09:15:39;;;;;;;1.53;1.53;;;;;;;;;;6045534;29;20306;-69
2023/12/23 09:18:45;;;;;;;1.57;1.57;;;;;;;;;;6046653;29;20310;-69
2023/12/23 09:21:48;;;;;;;2.00;1.63;;;;;;;;;;6047156;29;20313;-70
2023/12/23 09:24:52;;;;;;;1.80;1.80;;;;;;;;;;6046535;29;20302;-70
2023/12/23 09:27:56;;;;;;;1.60;1.60;;;;;;;;;;6047046;29;20469;-70
2023/12/23 09:31:00;;;;;;;1.63;1.63;;;;;;;;;;6047034;29;20310;-69
2023/12/23 09:34:06;;;;;;;1.47;1.47;;;;;;;;;;6046525;29;20309;-69
2023/12/23 09:37:10;;;;;;;1.60;1.60;;;;;;;;;;6046011;29;20538;-67
2023/12/23 09:40:14;;;;;;;1.67;1.67;;;;;;;;;;6045684;29;20310;-68
2023/12/23 09:43:19;;;;;;;1.40;1.40;;;;;;;;;;6046647;29;20317;-69
2023/12/23 09:46:23;;;;;;;1.70;1.70;;;;;;;;;;6046383;29;20290;-68
2023/12/23 09:49:29;;;;;;;1.60;1.50;;;;;;;;;;6047079;29;20375;-68
2023/12/23 09:52:32;;;;;;;1.60;1.60;;;;;;;;;;6047433;29;20347;-69
2023/12/23 09:55:37;;;;;;;1.40;1.40;;;;;;;;;;6053878;29;20293;-68
2023/12/23 09:58:43;;;;;;;1.90;1.90;;;;;;;;;;6069827;29;20297;-69
2023/12/23 10:01:47;;;;;;;1.60;1.50;;;;;;;;;;6069802;29;20296;-70
2023/12/23 10:04:52;;;;;;;1.60;1.60;;;;;;;;;;6068930;29;20293;-71
2023/12/23 10:07:57;;;;;;;1.70;1.70;;;;;;;;;;6069730;29;20312;-69
2023/12/23 10:11:01;;;;;;;1.57;1.57;;;;;;;;;;6062075;29;20303;-70
2023/12/23 10:14:05;;;;;;;1.67;1.67;;;;;;;;;;6045792;29;20302;-70
2023/12/23 10:17:09;;;;;;;1.60;1.60;;;;;;;;;;6045775;29;20307;-70
2023/12/23 10:20:14;;;;;;;1.83;1.83;;;;;;;;;;6046006;29;20308;-71
2023/12/23 10:23:18;;;;;;;1.70;1.70;;;;;;;;;;6045934;29;20303;-70
2023/12/23 10:26:23;;;;;;;1.80;1.80;;;;;;;;;;6045392;29;20317;-71
2023/12/23 10:29:28;;;;;;;1.47;1.47;;;;;;;;;;6045220;29;20298;-69
2023/12/23 10:32:33;;;;;;;1.67;1.67;;;;;;;;;;6045992;29;20323;-68
2023/12/23 10:35:43;;;;;;;1.40;1.40;;;;;;;;;;6045435;29;20471;-69
2023/12/23 10:38:49;;;;;;;1.53;1.53;;;;;;;;;;6045078;29;20297;-71
2023/12/23 10:41:58;;;;;;;1.60;1.60;;;;;;;;;;6046662;29;20294;-71
2023/12/23 10:45:02;;;;;;;1.60;1.60;;;;;;;;;;6045567;29;20314;-70
2023/12/23 10:48:09;;;;;;;1.90;1.80;;;;;;;;;;6045584;29;20322;-70
2023/12/23 10:51:15;;;;;;;1.67;1.67;;;;;;;;;;6044322;29;20338;-70
2023/12/23 10:54:19;;;;;;;1.80;1.70;;;;;;;;;;6045114;29;20567;-70
2023/12/23 10:57:24;;;;;;;1.70;1.70;;;;;;;;;;6066514;29;20293;-68
2023/12/23 11:00:28;;;;;;;1.87;1.87;;;;;;;;;;6067881;29;20312;-68
2023/12/23 11:03:32;;;;;;;1.80;1.80;;;;;;;;;;6068783;29;20296;-69
2023/12/23 11:06:40;;;;;;;1.63;1.63;;;;;;;;;;6067987;29;20317;-70
2023/12/23 11:09:47;;;;;;;1.90;1.90;;;;;;;;;;6068212;29;20315;-69
2023/12/23 11:12:51;;;;;;;1.67;1.67;;;;;;;;;;6048222;29;20304;-70
2023/12/23 11:15:56;;;;;;;2.40;2.30;;;;;;;;;;6044655;29;20301;-69
2023/12/23 11:19:02;;;;;;;1.70;1.70;;;;;;;;;;6044701;29;20467;-70
2023/12/23 11:22:25;;;;;;;1.70;1.70;;;;;;;;;;6045188;29;20301;-67
2023/12/23 11:25:39;;;;;;;1.60;1.50;;;;;;;;;;6044634;29;20301;-68
2023/12/23 11:28:48;;;;;;;1.70;1.70;;;;;;;;;;6044074;29;20293;-70
2023/12/23 11:31:53;;;;;;;2.53;1.80;;;;;;;;;;6045004;29;20604;-68
2023/12/23 11:34:59;;;;;;;1.67;1.67;;;;;;;;;;6044598;29;20305;-69
2023/12/23 11:38:05;;;;;;;1.70;1.70;;;;;;;;;;6043905;29;20294;-69
2023/12/23 11:41:09;;;;;;;1.60;1.60;;;;;;;;;;6044130;29;20305;-70
2023/12/23 11:44:13;;;;;;;1.73;1.73;;;;;;;;;;6044244;29;20308;-72
2023/12/23 11:47:18;;;;;;;1.80;1.80;;;;;;;;;;6044545;29;21863;-69
2023/12/23 11:50:22;;;;;;;1.60;1.60;;;;;;;;;;6042916;29;20310;-71
2023/12/23 11:53:28;;;;;;;1.90;1.90;;;;;;;;;;6044716;29;20306;-69
2023/12/23 11:56:32;;;;;;;2.07;1.63;;;;;;;;;;6058330;29;20293;-69
2023/12/23 11:59:36;;;;;;;1.70;1.70;;;;;;;;;;6067580;29;20301;-69
2023/12/23 12:02:40;;;;;;;1.50;1.50;;;;;;;;;;6070826;29;20546;-68
2023/12/23 12:05:44;;;;;;;1.73;1.73;;;;;;;;;;6071370;29;20591;-69
2023/12/23 12:08:50;;;;;;;1.60;1.50;;;;;;;;;;6070263;29;20489;-69
2023/12/23 12:11:54;;;;;;;1.90;1.80;;;;;;;;;;6059228;29;20600;-71
2023/12/23 12:14:58;;;;;;;1.60;1.60;;;;;;;;;;6048149;29;20298;-70
2023/12/23 12:18:02;;;;;;;1.57;1.57;;;;;;;;;;6048287;29;20309;-70
2023/12/23 12:21:06;;;;;;;1.50;1.50;;;;;;;;;;6047896;29;20301;-70
2023/12/23 12:24:11;;;;;;;2.00;1.57;;;;;;;;;;6048146;29;20298;-69
2023/12/23 12:27:15;;;;;;;2.00;1.50;;;;;;;;;;6048887;29;20303;-69
2023/12/23 12:30:19;;;;;;;1.50;1.50;;;;;;;;;;6049223;29;20297;-69
2023/12/23 12:33:23;;;;;;;1.80;1.80;;;;;;;;;;6053413;29;20299;-70
2023/12/23 12:36:28;;;;;;;1.73;1.73;;;;;;;;;;6047268;29;20337;-70
2023/12/23 12:39:33;;;;;;;1.80;1.80;;;;;;;;;;6047385;29;20306;-70
2023/12/23 12:42:38;;;;;;;1.60;1.60;;;;;;;;;;6048261;29;20310;-70
2023/12/23 12:45:42;;;;;;;1.77;1.70;;;;;;;;;;6047238;29;20305;-69
2023/12/23 12:48:46;;;;;;;1.80;1.80;;;;;;;;;;6047564;29;20309;-70
2023/12/23 12:51:51;;;;;;;4.23;1.90;;;;;;;;;;6047776;29;20301;-69
2023/12/23 12:54:57;;;;;;;1.60;1.60;;;;;;;;;;6049255;29;20305;-70
2023/12/23 12:58:02;;;;;;;1.63;1.63;;;;;;;;;;6070428;29;20324;-70
2023/12/23 13:01:06;;;;;;;1.90;1.90;;;;;;;;;;6069791;29;20289;-70
2023/12/23 13:04:11;;;;;;;1.83;1.60;;;;;;;;;;6069971;29;20293;-71
2023/12/23 13:07:15;;;;;;;1.40;1.40;;;;;;;;;;6070438;29;20433;-70
2023/12/23 13:10:20;;;;;;;1.97;1.90;;;;;;;;;;6069098;29;20302;-69
2023/12/23 13:13:24;;;;;;;1.50;1.50;;;;;;;;;;6046757;29;20318;-69
2023/12/23 13:16:28;;;;;;;1.77;1.77;;;;;;;;;;6046899;29;20301;-69
2023/12/23 13:19:32;;;;;;;1.90;1.90;;;;;;;;;;6045656;29;20499;-69
2023/12/23 13:22:36;;;;;;;1.70;1.70;;;;;;;;;;6047444;29;20306;-69
2023/12/23 13:25:42;;;;;;;1.63;1.63;;;;;;;;;;6046818;29;20303;-68
2023/12/23 13:28:45;;;;;;;1.63;1.50;;;;;;;;;;6047005;29;20301;-69
2023/12/23 13:31:54;;;;;;;1.70;1.60;;;;;;;;;;6047047;29;20322;-71
2023/12/23 13:34:58;;;;;;;2.00;1.90;;;;;;;;;;6045754;29;20321;-71
2023/12/23 13:38:02;;;;;;;1.30;1.30;;;;;;;;;;6046746;29;20254;-70
2023/12/23 13:41:09;;;;;;;1.57;1.57;;;;;;;;;;6046309;29;20297;-70
2023/12/23 13:44:12;;;;;;;1.73;1.73;;;;;;;;;;6046345;29;20377;-70
2023/12/23 13:47:16;;;;;;;1.73;1.73;;;;;;;;;;6047554;29;20247;-71
2023/12/23 13:50:21;;;;;;;1.37;1.37;;;;;;;;;;6046428;29;20328;-71
2023/12/23 13:53:25;;;;;;;1.63;1.63;;;;;;;;;;6046249;29;20371;-69
2023/12/23 13:56:30;;;;;;;1.63;1.50;;;;;;;;;;6059883;29;20296;-68
2023/12/23 13:59:34;;;;;;;2.00;1.63;;;;;;;;;;6069184;29;20313;-68
2023/12/23 14:02:38;;;;;;;1.63;1.60;;;;;;;;;;6069211;29;20292;-68
2023/12/23 14:05:42;;;;;;;1.67;1.67;;;;;;;;;;6068607;29;20534;-68
2023/12/23 14:08:46;;;;;;;2.17;2.00;;;;;;;;;;6068250;29;20306;-70
2023/12/23 14:11:52;;;;;;;2.13;2.13;;;;;;;;;;6056896;29;20298;-70
2023/12/23 14:14:55;;;;;;;1.83;1.83;;;;;;;;;;6044948;29;20302;-70
2023/12/23 14:17:59;;;;;;;1.70;1.70;;;;;;;;;;6044430;29;20480;-69
2023/12/23 14:21:03;;;;;;;1.83;1.67;;;;;;;;;;6045272;29;20322;-68
2023/12/23 14:24:07;;;;;;;1.90;1.90;;;;;;;;;;6045628;29;20301;-69
2023/12/23 14:27:12;;;;;;;1.60;1.60;;;;;;;;;;6045493;29;20342;-68
2023/12/23 14:30:16;;;;;;;1.77;1.77;;;;;;;;;;6044913;29;20309;-69
2023/12/23 14:33:20;;;;;;;1.73;1.73;;;;;;;;;;6044100;29;20317;-69
2023/12/23 14:36:26;;;;;;;1.50;1.50;;;;;;;;;;6044027;29;20293;-69
2023/12/23 14:39:29;;;;;;;1.83;1.73;;;;;;;;;;6044195;29;20295;-70
2023/12/23 14:42:35;;;;;;;1.70;1.70;;;;;;;;;;6044652;29;20431;-69
2023/12/23 14:45:38;;;;;;;1.80;1.70;;;;;;;;;;6044163;29;20297;-68
2023/12/23 14:48:42;;;;;;;1.90;1.90;;;;;;;;;;6041517;29;20295;-69
2023/12/23 14:51:46;;;;;;;1.93;1.87;;;;;;;;;;6044301;29;20297;-69
2023/12/23 14:54:50;;;;;;;1.67;1.67;;;;;;;;;;6044810;29;20301;-69
2023/12/23 14:57:56;;;;;;;1.60;1.60;;;;;;;;;;6071005;29;20292;-69
2023/12/23 15:01:00;;;;;;;2.00;1.90;;;;;;;;;;6067319;29;20301;-69
2023/12/23 15:04:04;;;;;;;1.93;1.80;;;;;;;;;;6066805;29;20297;-68
2023/12/23 15:07:09;;;;;;;1.77;1.77;;;;;;;;;;6067586;29;20309;-69
2023/12/23 15:10:13;;;;;;;3.23;1.70;;;;;;;;;;6066685;29;20306;-68
2023/12/23 15:13:20;;;;;;;1.90;1.80;;;;;;;;;;6043353;29;20299;-69
2023/12/23 15:16:24;;;;;;;2.20;1.43;;;;;;;;;;6043130;29;20301;-70
2023/12/23 15:19:29;;;;;;;2.30;1.80;;;;;;;;;;6042971;29;20554;-69
2023/12/23 15:22:33;;;;;;;1.70;1.60;;;;;;;;;;6043563;29;20590;-68
2023/12/23 15:25:37;;;;;;;1.50;1.50;;;;;;;;;;6043235;29;20320;-68
2023/12/23 15:28:42;;;;;;;2.33;2.23;;;;;;;;;;6043704;29;20609;-68
2023/12/23 15:31:47;;;;;;;1.50;1.50;;;;;;;;;;6044200;29;20591;-69
2023/12/23 15:34:51;;;;;;;1.77;1.77;;;;;;;;;;6033637;29;20598;-66
2023/12/23 15:37:55;;;;;;;1.70;1.70;;;;;;;;;;6047552;29;20293;-67
2023/12/23 15:40:59;;;;;;;1.80;1.80;;;;;;;;;;6047320;29;20305;-69
2023/12/23 15:44:05;;;;;;;2.03;2.03;;;;;;;;;;6048063;29;20493;-67
2023/12/23 15:47:10;;;;;;;1.90;1.90;;;;;;;;;;6048060;29;20302;-69
2023/12/23 15:50:14;;;;;;;1.80;1.80;;;;;;;;;;6047515;29;20301;-68
2023/12/23 15:53:18;;;;;;;1.73;1.73;;;;;;;;;;6046867;29;20488;-68
2023/12/23 15:56:22;;;;;;;1.70;1.70;;;;;;;;;;6059828;29;20288;-68
2023/12/23 15:59:27;;;;;;;1.80;1.70;;;;;;;;;;6075398;29;20316;-69
2023/12/23 16:02:31;;;;;;;1.77;1.77;;;;;;;;;;6070603;29;20599;-69
2023/12/23 16:05:36;;;;;;;1.60;1.60;;;;;;;;;;6070288;29;20294;-68
2023/12/23 16:08:40;;;;;;;1.63;1.63;;;;;;;;;;6071047;29;20294;-69
2023/12/23 16:11:44;;;;;;;1.60;1.60;;;;;;;;;;6058790;29;20309;-69
2023/12/23 16:14:49;;;;;;;1.87;1.77;;;;;;;;;;6045982;29;20293;-69
2023/12/23 16:17:53;;;;;;;1.93;1.90;;;;;;;;;;6046938;29;20301;-69
2023/12/23 16:20:57;;;;;;;1.87;1.87;;;;;;;;;;6046567;29;20298;-70
2023/12/23 16:24:00;;;;;;;1.80;1.80;;;;;;;;;;6046893;29;20298;-70
2023/12/23 16:27:05;;;;;;;1.80;1.77;;;;;;;;;;6047409;29;20298;-69
2023/12/23 16:30:11;;;;;;;1.40;1.40;;;;;;;;;;6046671;29;20597;-69
2023/12/23 16:33:15;;;;;;;2.07;1.80;;;;;;;;;;6044407;29;20298;-69
2023/12/23 16:36:19;;;;;;;1.40;1.40;;;;;;;;;;6046685;29;20297;-72
2023/12/23 16:39:23;;;;;;;2.00;1.90;;;;;;;;;;6046548;29;20297;-69
2023/12/23 16:42:27;;;;;;;2.00;2.00;;;;;;;;;;6046200;29;20309;-70
2023/12/23 16:45:32;;;;;;;1.83;1.83;;;;;;;;;;6046585;29;20321;-70
2023/12/23 16:48:37;;;;;;;1.80;1.80;;;;;;;;;;6046873;29;20318;-68
2023/12/23 16:51:41;;;;;;;2.00;1.90;;;;;;;;;;6046490;29;20296;-68
2023/12/23 16:54:46;;;;;;;2.00;2.00;;;;;;;;;;6046884;29;20297;-68
2023/12/23 16:57:50;;;;;;;1.83;1.83;;;;;;;;;;6062120;29;20298;-67
2023/12/23 17:00:55;;;;;;;2.20;2.10;;;;;;;;;;6069176;29;20293;-70
2023/12/23 17:03:59;;;;;;;2.00;1.80;;;;;;;;;;6069242;29;20379;-69
2023/12/23 17:07:03;;;;;;;2.27;2.17;;;;;;;;;;6069122;29;20297;-68
2023/12/23 17:10:08;;;;;;;1.90;1.80;;;;;;;;;;6068826;29;20304;-68
2023/12/23 17:13:12;;;;;;;2.00;2.00;;;;;;;;;;6046155;29;20298;-65
2023/12/23 17:16:17;;;;;;;1.80;1.80;;;;;;;;;;6045691;29;20326;-67
2023/12/23 17:19:21;;;;;;;2.00;2.00;;;;;;;;;;6045647;29;20301;-66
2023/12/23 17:22:25;;;;;;;2.00;2.00;;;;;;;;;;6046300;29;20384;-66
2023/12/23 17:25:30;;;;;;;1.73;1.73;;;;;;;;;;6045745;29;20297;-67
2023/12/23 17:28:34;;;;;;;1.90;1.80;;;;;;;;;;6046112;29;20302;-67
2023/12/23 17:31:40;;;;;;;1.60;1.60;;;;;;;;;;6045830;29;20302;-65
2023/12/23 17:34:44;;;;;;;2.40;2.20;;;;;;;;;;6044991;29;20297;-65
2023/12/23 17:37:48;;;;;;;1.70;1.70;;;;;;;;;;6045497;29;20357;-66
2023/12/23 17:40:52;;;;;;;1.83;1.73;;;;;;;;;;6044258;29;20301;-67
2023/12/23 17:43:56;;;;;;;2.10;2.00;;;;;;;;;;6043647;29;20332;-68
2023/12/23 17:47:01;;;;;;;2.67;2.03;;;;;;;;;;6044806;29;20293;-69
2023/12/23 17:50:06;;;;;;;1.70;1.70;;;;;;;;;;6044669;29;20302;-69
2023/12/23 17:53:10;;;;;;;1.80;1.80;;;;;;;;;;6045058;29;20470;-71
2023/12/23 17:56:13;;;;;;;2.07;2.07;;;;;;;;;;6055139;29;20491;-72
2023/12/23 17:59:17;;;;;;;1.90;1.80;;;;;;;;;;6065665;29;20297;-70
2023/12/23 18:02:22;;;;;;;1.93;1.93;;;;;;;;;;6068045;29;20304;-72
2023/12/23 18:05:26;;;;;;;2.87;2.30;;;;;;;;;;6067662;29;20289;-67
2023/12/23 18:08:32;;;;;;;1.97;1.97;;;;;;;;;;6068106;29;20297;-65
2023/12/23 18:11:36;;;;;;;2.30;2.20;;;;;;;;;;6057139;29;20318;-66
2023/12/23 18:14:40;;;;;;;1.93;1.90;;;;;;;;;;6044634;29;20300;-67
2023/12/23 18:17:46;;;;;;;2.40;2.13;;;;;;;;;;6044830;29;20297;-67
2023/12/23 18:20:51;;;;;;;2.10;2.00;;;;;;;;;;6044336;29;20289;-67
2023/12/23 18:23:55;;;;;;;1.80;1.70;;;;;;;;;;6044178;29;20293;-68
2023/12/23 18:27:00;;;;;;;2.00;1.90;;;;;;;;;;6044562;29;20293;-68